KGVE

Details ICAO KGVE
Name Gordonsville Municipal
Region United States
Timezone America/New_York (UTC-5.0)
Plans Departing 0
Arriving 0
Stats Elevation 454 ft / 138 m (AMSL)
Location 38.155987° -78.165775°
Runways 1
Magnetic Variation 10.001° W
Sunrise 2017-12-17 12:24:45 UTC / 2017-12-17 07:24:45 Local
Sunset 2017-12-17 21:55:46 UTC / 2017-12-17 16:55:46 Local
Advertisement - Login to hide

Runways

ID Width Length Bearing (true) Bearing (mag) Surface Threshold Offset Overrun Length
05 40 ft / 12 m 2,301 ft / 701 m 37.84° 47.84° Asphalt 0 ft / 0 m 0 ft / 0 m
23 40 ft / 12 m 2,301 ft / 701 m 217.84° 227.84° Asphalt 0 ft / 0 m 0 ft / 0 m

Map

Weather


0- 5 10 15 20 25 30 35+ Temperature / ° C

Clouds and Precipitation
Forecast for 2017-12-18 06:00 UTC. Updated an hour ago

Ground ~20,000 ft ~40,000 ft Winds

METAR

KGVE 180435Z AUTO 00000KT 10SM OVC050 05/02 A3013 RMK AO1 T00500023

TAF

Not found
Warning: Do not use this data for real-world aviation or navigation. No guarantee of current accuracy is given.